sensor_id;sensor_type;location;lat;lon;timestamp;pressure;altitude;pressure_sealevel;temperature;humidity
4133;BME280;2080;51.038;7.008;2023-02-14T00:02:16;78387.56;;;-142.53;100.00
4133;BME280;2080;51.038;7.008;2023-02-14T00:04:44;78385.63;;;-142.53;100.00
4133;BME280;2080;51.038;7.008;2023-02-14T00:07:11;78391.44;;;-142.53;100.00
4133;BME280;2080;51.038;7.008;2023-02-14T00:09:41;78401.16;;;-142.53;100.00
4133;BME280;2080;51.038;7.008;2023-02-14T00:12:06;78399.22;;;-142.53;100.00
4133;BME280;2080;51.038;7.008;2023-02-14T00:14:32;78418.66;;;-142.53;100.00
4133;BME280;2080;51.038;7.008;2023-02-14T00:17:16;78410.88;;;-142.53;100.00
4133;BME280;2080;51.038;7.008;2023-02-14T00:19:41;78414.78;;;-142.53;100.00
4133;BME280;2080;51.038;7.008;2023-02-14T00:22:06;78410.88;;;-142.53;100.00
4133;BME280;2080;51.038;7.008;2023-02-14T00:24:32;78430.31;;;-142.53;100.00
4133;BME280;2080;51.038;7.008;2023-02-14T00:27:00;78438.09;;;-142.53;100.00
4133;BME280;2080;51.038;7.008;2023-02-14T00:29:28;78430.31;;;-142.53;100.00
4133;BME280;2080;51.038;7.008;2023-02-14T00:31:56;78445.88;;;-142.53;100.00
4133;BME280;2080;51.038;7.008;2023-02-14T00:34:22;78449.75;;;-142.53;100.00
4133;BME280;2080;51.038;7.008;2023-02-14T00:36:49;78432.25;;;-142.53;100.00
4133;BME280;2080;51.038;7.008;2023-02-14T00:39:16;78434.22;;;-142.53;100.00
4133;BME280;2080;51.038;7.008;2023-02-14T00:41:44;78424.50;;;-142.53;100.00
4133;BME280;2080;51.038;7.008;2023-02-14T00:44:12;78422.53;;;-142.53;100.00
4133;BME280;2080;51.038;7.008;2023-02-14T00:46:38;78432.25;;;-142.53;100.00
4133;BME280;2080;51.038;7.008;2023-02-14T00:49:04;78414.78;;;-142.53;100.00
4133;BME280;2080;51.038;7.008;2023-02-14T00:51:31;78428.38;;;-142.53;100.00
4133;BME280;2080;51.038;7.008;2023-02-14T00:53:57;78434.22;;;-142.53;100.00
4133;BME280;2080;51.038;7.008;2023-02-14T00:56:22;78432.25;;;-142.53;100.00
4133;BME280;2080;51.038;7.008;2023-02-14T00:58:50;78445.88;;;-142.53;100.00
4133;BME280;2080;51.038;7.008;2023-02-14T01:01:15;78440.03;;;-142.53;100.00
4133;BME280;2080;51.038;7.008;2023-02-14T01:03:41;78441.97;;;-142.53;100.00
4133;BME280;2080;51.038;7.008;2023-02-14T01:06:07;78436.16;;;-142.53;100.00
4133;BME280;2080;51.038;7.008;2023-02-14T01:08:33;78430.31;;;-142.53;100.00
4133;BME280;2080;51.038;7.008;2023-02-14T01:11:15;78438.09;;;-142.53;100.00
4133;BME280;2080;51.038;7.008;2023-02-14T01:13:47;78436.16;;;-142.53;100.00
4133;BME280;2080;51.038;7.008;2023-02-14T01:16:16;78441.97;;;-142.53;100.00
4133;BME280;2080;51.038;7.008;2023-02-14T01:18:42;78445.88;;;-142.53;100.00
4133;BME280;2080;51.038;7.008;2023-02-14T01:23:48;78434.22;;;-142.53;100.00
4133;BME280;2080;51.038;7.008;2023-02-14T01:26:15;78445.88;;;-142.53;100.00
4133;BME280;2080;51.038;7.008;2023-02-14T01:28:41;78438.09;;;-142.53;100.00
4133;BME280;2080;51.038;7.008;2023-02-14T01:33:37;78441.97;;;-142.53;100.00
4133;BME280;2080;51.038;7.008;2023-02-14T01:36:03;78449.75;;;-142.53;100.00
4133;BME280;2080;51.038;7.008;2023-02-14T01:38:28;78465.31;;;-142.53;100.00
4133;BME280;2080;51.038;7.008;2023-02-14T01:40:54;78465.31;;;-142.53;100.00
4133;BME280;2080;51.038;7.008;2023-02-14T01:43:21;78471.13;;;-142.53;100.00
4133;BME280;2080;51.038;7.008;2023-02-14T01:45:47;78473.06;;;-142.53;100.00
4133;BME280;2080;51.038;7.008;2023-02-14T01:48:13;78478.91;;;-142.53;100.00
4133;BME280;2080;51.038;7.008;2023-02-14T01:50:43;78480.84;;;-142.53;100.00
4133;BME280;2080;51.038;7.008;2023-02-14T01:53:15;78473.06;;;-142.53;100.00
4133;BME280;2080;51.038;7.008;2023-02-14T01:55:46;78476.97;;;-142.53;100.00
4133;BME280;2080;51.038;7.008;2023-02-14T01:58:23;78486.69;;;-142.53;100.00
4133;BME280;2080;51.038;7.008;2023-02-14T02:00:49;78482.78;;;-142.53;100.00
4133;BME280;2080;51.038;7.008;2023-02-14T02:06:28;78484.75;;;-142.53;100.00
4133;BME280;2080;51.038;7.008;2023-02-14T02:11:53;78492.50;;;-142.53;100.00
4133;BME280;2080;51.038;7.008;2023-02-14T02:14:22;78504.19;;;-142.53;100.00
4133;BME280;2080;51.038;7.008;2023-02-14T02:25:24;78513.88;;;-142.53;100.00
4133;BME280;2080;51.038;7.008;2023-02-14T02:36:41;78550.81;;;-142.53;100.00
4133;BME280;2080;51.038;7.008;2023-02-14T02:42:35;78568.31;;;-142.53;100.00
4133;BME280;2080;51.038;7.008;2023-02-14T02:48:47;78581.91;;;-142.53;100.00
4133;BME280;2080;51.038;7.008;2023-02-14T02:51:20;78581.91;;;-142.53;100.00
4133;BME280;2080;51.038;7.008;2023-02-14T02:54:35;78593.56;;;-142.53;100.00
4133;BME280;2080;51.038;7.008;2023-02-14T02:57:06;78589.69;;;-142.53;100.00
4133;BME280;2080;51.038;7.008;2023-02-14T02:59:38;78591.63;;;-142.53;100.00
4133;BME280;2080;51.038;7.008;2023-02-14T03:04:49;78605.25;;;-142.53;100.00
4133;BME280;2080;51.038;7.008;2023-02-14T03:07:40;78611.06;;;-142.53;100.00
4133;BME280;2080;51.038;7.008;2023-02-14T03:23:44;78651.88;;;-142.53;100.00
4133;BME280;2080;51.038;7.008;2023-02-14T03:26:16;78651.88;;;-142.53;100.00
4133;BME280;2080;51.038;7.008;2023-02-14T03:31:53;78675.22;;;-142.53;100.00
4133;BME280;2080;51.038;7.008;2023-02-14T03:37:39;78669.38;;;-142.53;100.00
4133;BME280;2080;51.038;7.008;2023-02-14T03:40:10;78663.53;;;-142.53;100.00
4133;BME280;2080;51.038;7.008;2023-02-14T03:42:46;78675.22;;;-142.53;100.00
4133;BME280;2080;51.038;7.008;2023-02-14T03:45:39;78675.22;;;-142.53;100.00
4133;BME280;2080;51.038;7.008;2023-02-14T03:48:10;78686.88;;;-142.53;100.00
4133;BME280;2080;51.038;7.008;2023-02-14T03:50:37;78679.09;;;-142.53;100.00
4133;BME280;2080;51.038;7.008;2023-02-14T03:53:07;78663.53;;;-142.53;100.00
4133;BME280;2080;51.038;7.008;2023-02-14T03:55:43;78649.94;;;-142.53;100.00
4133;BME280;2080;51.038;7.008;2023-02-14T03:58:17;78649.94;;;-142.53;100.00
4133;BME280;2080;51.038;7.008;2023-02-14T04:00:49;78659.66;;;-142.53;100.00
4133;BME280;2080;51.038;7.008;2023-02-14T04:03:17;78659.66;;;-142.53;100.00
4133;BME280;2080;51.038;7.008;2023-02-14T04:05:46;78663.53;;;-142.53;100.00
4133;BME280;2080;51.038;7.008;2023-02-14T04:08:27;78679.09;;;-142.53;100.00
4133;BME280;2080;51.038;7.008;2023-02-14T04:10:55;78681.03;;;-142.53;100.00
4133;BME280;2080;51.038;7.008;2023-02-14T04:13:24;78700.47;;;-142.53;100.00
4133;BME280;2080;51.038;7.008;2023-02-14T04:15:49;78702.41;;;-142.53;100.00
4133;BME280;2080;51.038;7.008;2023-02-14T04:18:15;78704.38;;;-142.53;100.00
4133;BME280;2080;51.038;7.008;2023-02-14T04:20:58;78721.84;;;-142.53;100.00
4133;BME280;2080;51.038;7.008;2023-02-14T04:23:24;78721.84;;;-142.53;100.00
4133;BME280;2080;51.038;7.008;2023-02-14T04:25:52;78714.09;;;-142.53;100.00
4133;BME280;2080;51.038;7.008;2023-02-14T04:28:17;78714.09;;;-142.53;100.00
4133;BME280;2080;51.038;7.008;2023-02-14T04:30:45;78710.19;;;-142.53;100.00
4133;BME280;2080;51.038;7.008;2023-02-14T04:33:10;78725.75;;;-142.53;100.00
4133;BME280;2080;51.038;7.008;2023-02-14T04:35:38;78731.56;;;-142.53;100.00
4133;BME280;2080;51.038;7.008;2023-02-14T04:38:06;78733.53;;;-142.53;100.00
4133;BME280;2080;51.038;7.008;2023-02-14T04:40:36;78733.53;;;-142.53;100.00
4133;BME280;2080;51.038;7.008;2023-02-14T04:43:04;78733.53;;;-142.53;100.00
4133;BME280;2080;51.038;7.008;2023-02-14T04:45:31;78725.75;;;-142.53;100.00
4133;BME280;2080;51.038;7.008;2023-02-14T04:47:56;78714.09;;;-142.53;100.00
4133;BME280;2080;51.038;7.008;2023-02-14T04:50:21;78717.97;;;-142.53;100.00
4133;BME280;2080;51.038;7.008;2023-02-14T04:52:47;78733.53;;;-142.53;100.00
4133;BME280;2080;51.038;7.008;2023-02-14T04:55:15;78737.41;;;-142.53;100.00
4133;BME280;2080;51.038;7.008;2023-02-14T04:57:40;78737.41;;;-142.53;100.00
4133;BME280;2080;51.038;7.008;2023-02-14T05:00:06;78725.75;;;-142.53;100.00
4133;BME280;2080;51.038;7.008;2023-02-14T05:02:34;78733.53;;;-142.53;100.00
4133;BME280;2080;51.038;7.008;2023-02-14T05:04:59;78725.75;;;-142.53;100.00
4133;BME280;2080;51.038;7.008;2023-02-14T05:07:26;78741.28;;;-142.53;100.00
4133;BME280;2080;51.038;7.008;2023-02-14T05:09:54;78737.41;;;-142.53;100.00
4133;BME280;2080;51.038;7.008;2023-02-14T05:12:20;78731.56;;;-142.53;100.00
4133;BME280;2080;51.038;7.008;2023-02-14T05:14:45;78717.97;;;-142.53;100.00
4133;BME280;2080;51.038;7.008;2023-02-14T05:17:11;78717.97;;;-142.53;100.00
4133;BME280;2080;51.038;7.008;2023-02-14T05:19:36;78717.97;;;-142.53;100.00
4133;BME280;2080;51.038;7.008;2023-02-14T05:22:04;78716.03;;;-142.53;100.00
4133;BME280;2080;51.038;7.008;2023-02-14T05:24:29;78723.81;;;-142.53;100.00
4133;BME280;2080;51.038;7.008;2023-02-14T05:26:55;78725.75;;;-142.53;100.00
4133;BME280;2080;51.038;7.008;2023-02-14T05:29:20;78721.84;;;-142.53;100.00
4133;BME280;2080;51.038;7.008;2023-02-14T05:31:46;78717.97;;;-142.53;100.00
4133;BME280;2080;51.038;7.008;2023-02-14T05:34:13;78725.75;;;-142.53;100.00
4133;BME280;2080;51.038;7.008;2023-02-14T05:36:39;78704.38;;;-142.53;100.00
4133;BME280;2080;51.038;7.008;2023-02-14T05:39:07;78690.75;;;-142.53;100.00
4133;BME280;2080;51.038;7.008;2023-02-14T05:41:35;78688.81;;;-142.53;100.00
4133;BME280;2080;51.038;7.008;2023-02-14T05:44:02;78688.81;;;-142.53;100.00
4133;BME280;2080;51.038;7.008;2023-02-14T05:46:27;78682.97;;;-142.53;100.00
4133;BME280;2080;51.038;7.008;2023-02-14T05:48:55;78690.75;;;-142.53;100.00
4133;BME280;2080;51.038;7.008;2023-02-14T05:51:21;78700.47;;;-142.53;100.00
4133;BME280;2080;51.038;7.008;2023-02-14T05:53:46;78702.41;;;-142.53;100.00
4133;BME280;2080;51.038;7.008;2023-02-14T05:56:14;78702.41;;;-142.53;100.00
4133;BME280;2080;51.038;7.008;2023-02-14T05:58:44;78702.41;;;-142.53;100.00
4133;BME280;2080;51.038;7.008;2023-02-14T06:01:12;78721.84;;;-142.53;100.00
4133;BME280;2080;51.038;7.008;2023-02-14T06:03:37;78717.97;;;-142.53;100.00
4133;BME280;2080;51.038;7.008;2023-02-14T06:06:03;78717.97;;;-142.53;100.00
4133;BME280;2080;51.038;7.008;2023-02-14T06:08:28;78702.41;;;-142.53;100.00
4133;BME280;2080;51.038;7.008;2023-02-14T06:10:56;78686.88;;;-142.53;100.00
4133;BME280;2080;51.038;7.008;2023-02-14T06:13:24;78692.69;;;-142.53;100.00
4133;BME280;2080;51.038;7.008;2023-02-14T06:15:49;78682.97;;;-142.53;100.00
4133;BME280;2080;51.038;7.008;2023-02-14T06:18:14;78663.53;;;-142.53;100.00
4133;BME280;2080;51.038;7.008;2023-02-14T06:20:43;78663.53;;;-142.53;100.00
4133;BME280;2080;51.038;7.008;2023-02-14T06:23:08;78669.38;;;-142.53;100.00
4133;BME280;2080;51.038;7.008;2023-02-14T06:25:34;78667.44;;;-142.53;100.00
4133;BME280;2080;51.038;7.008;2023-02-14T06:27:59;78669.38;;;-142.53;100.00
4133;BME280;2080;51.038;7.008;2023-02-14T06:30:27;78671.31;;;-142.53;100.00
4133;BME280;2080;51.038;7.008;2023-02-14T06:32:54;78675.22;;;-142.53;100.00
4133;BME280;2080;51.038;7.008;2023-02-14T06:35:20;78667.44;;;-142.53;100.00
4133;BME280;2080;51.038;7.008;2023-02-14T06:37:45;78675.22;;;-142.53;100.00
4133;BME280;2080;51.038;7.008;2023-02-14T06:40:12;78671.31;;;-142.53;100.00
4133;BME280;2080;51.038;7.008;2023-02-14T06:42:37;78663.53;;;-142.53;100.00
4133;BME280;2080;51.038;7.008;2023-02-14T06:45:04;78649.94;;;-142.53;100.00
4133;BME280;2080;51.038;7.008;2023-02-14T06:47:29;78648.00;;;-142.53;100.00
4133;BME280;2080;51.038;7.008;2023-02-14T06:49:55;78651.88;;;-142.53;100.00
4133;BME280;2080;51.038;7.008;2023-02-14T06:52:20;78657.72;;;-142.53;100.00
4133;BME280;2080;51.038;7.008;2023-02-14T06:54:48;78657.72;;;-142.53;100.00
4133;BME280;2080;51.038;7.008;2023-02-14T06:57:13;78661.59;;;-142.53;100.00
4133;BME280;2080;51.038;7.008;2023-02-14T06:59:39;78648.00;;;-142.53;100.00
4133;BME280;2080;51.038;7.008;2023-02-14T07:02:04;78640.22;;;-142.53;100.00
4133;BME280;2080;51.038;7.008;2023-02-14T07:04:29;78628.56;;;-142.53;100.00
4133;BME280;2080;51.038;7.008;2023-02-14T07:06:57;78603.28;;;-142.53;100.00
4133;BME280;2080;51.038;7.008;2023-02-14T07:09:23;78611.06;;;-142.53;100.00
4133;BME280;2080;51.038;7.008;2023-02-14T07:11:50;78616.91;;;-142.53;100.00
4133;BME280;2080;51.038;7.008;2023-02-14T07:14:18;78609.13;;;-142.53;100.00
4133;BME280;2080;51.038;7.008;2023-02-14T07:16:44;78618.84;;;-142.53;100.00
4133;BME280;2080;51.038;7.008;2023-02-14T07:19:12;78632.44;;;-142.53;100.00
4133;BME280;2080;51.038;7.008;2023-02-14T07:21:37;78622.72;;;-142.53;100.00
4133;BME280;2080;51.038;7.008;2023-02-14T07:24:05;78618.84;;;-142.53;100.00
4133;BME280;2080;51.038;7.008;2023-02-14T07:26:31;78591.63;;;-142.53;100.00
4133;BME280;2080;51.038;7.008;2023-02-14T07:28:56;78585.81;;;-142.53;100.00
4133;BME280;2080;51.038;7.008;2023-02-14T07:31:21;78574.13;;;-142.53;100.00
4133;BME280;2080;51.038;7.008;2023-02-14T07:33:49;78558.59;;;-142.53;100.00
4133;BME280;2080;51.038;7.008;2023-02-14T07:36:16;78546.94;;;-142.53;100.00
4133;BME280;2080;51.038;7.008;2023-02-14T07:38:42;78537.22;;;-142.53;100.00
4133;BME280;2080;51.038;7.008;2023-02-14T07:41:07;78519.72;;;-142.53;100.00
4133;BME280;2080;51.038;7.008;2023-02-14T07:43:37;78504.19;;;-142.53;100.00
4133;BME280;2080;51.038;7.008;2023-02-14T07:46:04;78504.19;;;-142.53;100.00
4133;BME280;2080;51.038;7.008;2023-02-14T07:48:29;78490.56;;;-142.53;100.00
4133;BME280;2080;51.038;7.008;2023-02-14T07:50:57;78465.31;;;-142.53;100.00
4133;BME280;2080;51.038;7.008;2023-02-14T07:53:25;78461.41;;;-142.53;100.00
4133;BME280;2080;51.038;7.008;2023-02-14T07:55:51;78447.81;;;-142.53;100.00
4133;BME280;2080;51.038;7.008;2023-02-14T07:58:17;78438.09;;;-142.53;100.00
4133;BME280;2080;51.038;7.008;2023-02-14T08:00:42;78426.44;;;-142.53;100.00
4133;BME280;2080;51.038;7.008;2023-02-14T08:03:08;78410.88;;;-142.53;100.00
4133;BME280;2080;51.038;7.008;2023-02-14T08:05:34;78391.44;;;-142.53;100.00
4133;BME280;2080;51.038;7.008;2023-02-14T08:08:04;78375.91;;;-142.53;100.00
4133;BME280;2080;51.038;7.008;2023-02-14T08:10:32;78356.47;;;-142.53;100.00
4133;BME280;2080;51.038;7.008;2023-02-14T08:12:59;78335.09;;;-142.53;100.00
4133;BME280;2080;51.038;7.008;2023-02-14T08:15:27;78323.44;;;-142.53;100.00
4133;BME280;2080;51.038;7.008;2023-02-14T08:18:14;78302.06;;;-142.53;100.00
4133;BME280;2080;51.038;7.008;2023-02-14T08:20:40;78276.78;;;-142.53;100.00
4133;BME280;2080;51.038;7.008;2023-02-14T08:23:08;78259.28;;;-142.53;100.00
4133;BME280;2080;51.038;7.008;2023-02-14T08:25:36;78239.88;;;-142.53;100.00
4133;BME280;2080;51.038;7.008;2023-02-14T08:28:03;78216.53;;;-142.53;100.00
4133;BME280;2080;51.038;7.008;2023-02-14T08:30:31;78201.00;;;-142.53;100.00
4133;BME280;2080;51.038;7.008;2023-02-14T08:32:57;78197.09;;;-142.53;100.00
4133;BME280;2080;51.038;7.008;2023-02-14T08:35:25;78185.44;;;-142.53;100.00
4133;BME280;2080;51.038;7.008;2023-02-14T08:37:50;78177.69;;;-142.53;100.00
4133;BME280;2080;51.038;7.008;2023-02-14T08:40:15;78162.13;;;-142.53;100.00
4133;BME280;2080;51.038;7.008;2023-02-14T08:42:41;78142.69;;;-142.53;100.00
4133;BME280;2080;51.038;7.008;2023-02-14T08:45:06;78119.38;;;-142.53;100.00
4133;BME280;2080;51.038;7.008;2023-02-14T08:47:32;78099.94;;;-142.53;100.00
4133;BME280;2080;51.038;7.008;2023-02-14T08:50:06;78088.28;;;-142.53;100.00
4133;BME280;2080;51.038;7.008;2023-02-14T08:52:34;78090.22;;;-142.53;100.00
4133;BME280;2080;51.038;7.008;2023-02-14T08:54:59;78068.84;;;-142.53;100.00
4133;BME280;2080;51.038;7.008;2023-02-14T08:57:26;78072.75;;;-142.53;100.00
4133;BME280;2080;51.038;7.008;2023-02-14T08:59:54;78055.25;;;-142.53;100.00
4133;BME280;2080;51.038;7.008;2023-02-14T09:02:23;78037.75;;;-142.53;100.00
4133;BME280;2080;51.038;7.008;2023-02-14T09:04:49;78029.97;;;-142.53;99.77
4133;BME280;2080;51.038;7.008;2023-02-14T09:07:14;78014.44;;;-142.53;98.96
4133;BME280;2080;51.038;7.008;2023-02-14T09:09:43;78014.44;;;-142.53;98.17
4133;BME280;2080;51.038;7.008;2023-02-14T09:12:11;77993.06;;;-142.53;96.55
4133;BME280;2080;51.038;7.008;2023-02-14T09:14:39;77963.91;;;-142.53;95.11
4133;BME280;2080;51.038;7.008;2023-02-14T09:17:06;77958.09;;;-142.53;94.29
4133;BME280;2080;51.038;7.008;2023-02-14T09:19:35;77936.72;;;-142.53;93.52
4133;BME280;2080;51.038;7.008;2023-02-14T09:22:03;77925.06;;;-142.53;93.25
4133;BME280;2080;51.038;7.008;2023-02-14T09:24:30;77917.28;;;-142.53;93.16
4133;BME280;2080;51.038;7.008;2023-02-14T09:26:56;77917.28;;;-142.53;93.63
4133;BME280;2080;51.038;7.008;2023-02-14T09:29:26;77890.06;;;-142.53;92.81
4133;BME280;2080;51.038;7.008;2023-02-14T09:31:56;77890.06;;;-142.53;92.10
4133;BME280;2080;51.038;7.008;2023-02-14T09:34:24;77872.59;;;-142.53;91.86
4133;BME280;2080;51.038;7.008;2023-02-14T09:37:04;77851.22;;;-142.53;89.40
4133;BME280;2080;51.038;7.008;2023-02-14T09:39:36;77851.22;;;-142.53;89.65
4133;BME280;2080;51.038;7.008;2023-02-14T09:42:18;77837.59;;;-142.53;88.69
4133;BME280;2080;51.038;7.008;2023-02-14T09:49:54;77804.56;;;-142.53;86.77
4133;BME280;2080;51.038;7.008;2023-02-14T09:52:25;77789.03;;;-142.53;85.95
4133;BME280;2080;51.038;7.008;2023-02-14T09:54:54;77769.59;;;-142.53;84.84
4133;BME280;2080;51.038;7.008;2023-02-14T10:00:10;77756.00;;;-142.53;84.27
4133;BME280;2080;51.038;7.008;2023-02-14T10:03:00;77742.41;;;-142.53;83.51
4133;BME280;2080;51.038;7.008;2023-02-14T10:06:11;77746.28;;;-142.53;83.53
4133;BME280;2080;51.038;7.008;2023-02-14T10:09:05;77724.91;;;-142.53;83.32
4133;BME280;2080;51.038;7.008;2023-02-14T10:11:35;77711.31;;;-142.53;82.18
4133;BME280;2080;51.038;7.008;2023-02-14T10:14:10;77715.19;;;-142.53;82.19
4133;BME280;2080;51.038;7.008;2023-02-14T10:16:43;77726.84;;;-142.53;82.33
4133;BME280;2080;51.038;7.008;2023-02-14T10:21:55;77703.53;;;-142.53;82.13
4133;BME280;2080;51.038;7.008;2023-02-14T10:24:27;77678.28;;;-142.53;80.67
4133;BME280;2080;51.038;7.008;2023-02-14T10:27:03;77664.66;;;-142.53;79.85
4133;BME280;2080;51.038;7.008;2023-02-14T10:29:30;77660.78;;;-142.53;79.74
4133;BME280;2080;51.038;7.008;2023-02-14T10:31:58;77635.53;;;-142.53;79.61
4133;BME280;2080;51.038;7.008;2023-02-14T10:34:38;77633.59;;;-142.53;79.59
4133;BME280;2080;51.038;7.008;2023-02-14T10:56:34;77551.97;;;-142.53;74.30
4133;BME280;2080;51.038;7.008;2023-02-14T10:59:16;77528.66;;;-142.53;74.17
4133;BME280;2080;51.038;7.008;2023-02-14T11:01:43;77497.56;;;-142.53;73.03
4133;BME280;2080;51.038;7.008;2023-02-14T11:04:15;77499.53;;;-142.53;72.92
4133;BME280;2080;51.038;7.008;2023-02-14T11:06:41;77493.69;;;-142.53;72.94
4133;BME280;2080;51.038;7.008;2023-02-14T11:09:15;77478.16;;;-142.53;73.18
4133;BME280;2080;51.038;7.008;2023-02-14T11:16:45;77404.31;;;-142.53;70.74
4133;BME280;2080;51.038;7.008;2023-02-14T11:21:47;77381.00;;;-142.53;67.08
4133;BME280;2080;51.038;7.008;2023-02-14T11:27:02;77377.13;;;-142.53;66.16
4133;BME280;2080;51.038;7.008;2023-02-14T11:34:50;77353.78;;;-142.53;65.27
4133;BME280;2080;51.038;7.008;2023-02-14T11:39:46;77334.38;;;-142.53;65.53
4133;BME280;2080;51.038;7.008;2023-02-14T11:42:31;77318.81;;;-142.53;64.51
4133;BME280;2080;51.038;7.008;2023-02-14T11:44:57;77307.16;;;-142.53;64.02
4133;BME280;2080;51.038;7.008;2023-02-14T11:47:28;77303.28;;;-142.53;63.53
4133;BME280;2080;51.038;7.008;2023-02-14T11:50:04;77289.69;;;-142.53;62.65
4133;BME280;2080;51.038;7.008;2023-02-14T11:52:38;77285.78;;;-142.53;62.53
4133;BME280;2080;51.038;7.008;2023-02-14T11:55:22;77276.09;;;-142.53;63.40
4133;BME280;2080;51.038;7.008;2023-02-14T11:57:51;77248.88;;;-142.53;62.37
4133;BME280;2080;51.038;7.008;2023-02-14T12:00:17;77237.22;;;-142.53;60.35
4133;BME280;2080;51.038;7.008;2023-02-14T12:02:46;77237.22;;;-142.53;59.23
4133;BME280;2080;51.038;7.008;2023-02-14T12:07:50;77233.34;;;-142.53;58.71
4133;BME280;2080;51.038;7.008;2023-02-14T12:10:18;77227.50;;;-142.53;57.90
4133;BME280;2080;51.038;7.008;2023-02-14T12:31:55;77149.81;;;-142.53;55.16
4133;BME280;2080;51.038;7.008;2023-02-14T12:34:23;77136.19;;;-142.53;55.08
4133;BME280;2080;51.038;7.008;2023-02-14T12:45:01;77070.16;;;-142.53;53.60
4133;BME280;2080;51.038;7.008;2023-02-14T12:56:00;77056.56;;;-142.53;52.63
4133;BME280;2080;51.038;7.008;2023-02-14T13:04:43;77058.50;;;-142.53;51.75
4133;BME280;2080;51.038;7.008;2023-02-14T13:12:39;77039.06;;;-142.53;51.93
4133;BME280;2080;51.038;7.008;2023-02-14T13:15:40;77031.28;;;-142.53;52.25
4133;BME280;2080;51.038;7.008;2023-02-14T13:20:56;76986.63;;;-142.53;50.86
4133;BME280;2080;51.038;7.008;2023-02-14T13:26:16;76984.66;;;-142.53;50.12
4133;BME280;2080;51.038;7.008;2023-02-14T13:28:58;76992.44;;;-142.53;50.52
4133;BME280;2080;51.038;7.008;2023-02-14T13:31:25;76992.44;;;-142.53;49.70
4133;BME280;2080;51.038;7.008;2023-02-14T13:34:05;76973.00;;;-142.53;49.50
4133;BME280;2080;51.038;7.008;2023-02-14T13:36:34;76973.00;;;-142.53;48.53
4133;BME280;2080;51.038;7.008;2023-02-14T13:39:00;76973.00;;;-142.53;47.98
4133;BME280;2080;51.038;7.008;2023-02-14T13:41:26;76957.47;;;-142.53;49.26
4133;BME280;2080;51.038;7.008;2023-02-14T13:43:55;76961.34;;;-142.53;49.35
4133;BME280;2080;51.038;7.008;2023-02-14T13:46:48;76969.13;;;-142.53;49.37
4133;BME280;2080;51.038;7.008;2023-02-14T13:51:51;76969.13;;;-142.53;49.48
4133;BME280;2080;51.038;7.008;2023-02-14T13:54:31;76945.81;;;-142.53;49.45
4133;BME280;2080;51.038;7.008;2023-02-14T13:57:01;76941.94;;;-142.53;47.94
4133;BME280;2080;51.038;7.008;2023-02-14T13:59:30;76926.41;;;-142.53;48.35
4133;BME280;2080;51.038;7.008;2023-02-14T14:02:38;76922.50;;;-142.53;48.96
4133;BME280;2080;51.038;7.008;2023-02-14T14:21:26;76906.97;;;-142.53;47.27
4133;BME280;2080;51.038;7.008;2023-02-14T14:26:43;76922.50;;;-142.53;46.94
4133;BME280;2080;51.038;7.008;2023-02-14T14:29:15;76901.13;;;-142.53;47.86
4133;BME280;2080;51.038;7.008;2023-02-14T14:31:42;76881.72;;;-142.53;48.29
4133;BME280;2080;51.038;7.008;2023-02-14T14:34:18;76879.78;;;-142.53;48.32
4133;BME280;2080;51.038;7.008;2023-02-14T14:36:49;76891.44;;;-142.53;47.57
4133;BME280;2080;51.038;7.008;2023-02-14T14:39:26;76906.97;;;-142.53;47.08
4133;BME280;2080;51.038;7.008;2023-02-14T14:41:52;76914.75;;;-142.53;47.27
4133;BME280;2080;51.038;7.008;2023-02-14T14:44:18;76906.97;;;-142.53;47.11
4133;BME280;2080;51.038;7.008;2023-02-14T14:46:43;76926.41;;;-142.53;47.33
4133;BME280;2080;51.038;7.008;2023-02-14T14:49:09;76922.50;;;-142.53;47.08
4133;BME280;2080;51.038;7.008;2023-02-14T14:51:36;76899.19;;;-142.53;47.59
4133;BME280;2080;51.038;7.008;2023-02-14T14:54:05;76906.97;;;-142.53;47.53
4133;BME280;2080;51.038;7.008;2023-02-14T14:56:33;76910.84;;;-142.53;47.99
4133;BME280;2080;51.038;7.008;2023-02-14T15:01:51;76883.66;;;-142.53;47.09
4133;BME280;2080;51.038;7.008;2023-02-14T15:06:53;76883.66;;;-142.53;46.89
4133;BME280;2080;51.038;7.008;2023-02-14T15:09:28;76885.59;;;-142.53;46.96
4133;BME280;2080;51.038;7.008;2023-02-14T15:11:59;76893.38;;;-142.53;46.75
4133;BME280;2080;51.038;7.008;2023-02-14T15:14:47;76883.66;;;-142.53;47.41
4133;BME280;2080;51.038;7.008;2023-02-14T15:17:26;76887.53;;;-142.53;46.72
4133;BME280;2080;51.038;7.008;2023-02-14T15:19:58;76895.31;;;-142.53;46.64
4133;BME280;2080;51.038;7.008;2023-02-14T15:25:19;76905.03;;;-142.53;47.18
4133;BME280;2080;51.038;7.008;2023-02-14T15:27:48;76908.91;;;-142.53;47.33
4133;BME280;2080;51.038;7.008;2023-02-14T15:32:48;76912.78;;;-142.53;46.98
4133;BME280;2080;51.038;7.008;2023-02-14T15:35:22;76912.78;;;-142.53;46.75
4133;BME280;2080;51.038;7.008;2023-02-14T15:37:49;76920.56;;;-142.53;46.90
4133;BME280;2080;51.038;7.008;2023-02-14T15:40:21;76922.50;;;-142.53;47.06
4133;BME280;2080;51.038;7.008;2023-02-14T15:42:49;76926.41;;;-142.53;47.18
4133;BME280;2080;51.038;7.008;2023-02-14T15:47:55;76941.94;;;-142.53;47.18
4133;BME280;2080;51.038;7.008;2023-02-14T15:50:23;76953.59;;;-142.53;47.54
4133;BME280;2080;51.038;7.008;2023-02-14T15:53:01;76965.25;;;-142.53;47.33
4133;BME280;2080;51.038;7.008;2023-02-14T15:55:27;76980.78;;;-142.53;47.51
4133;BME280;2080;51.038;7.008;2023-02-14T15:57:56;77004.09;;;-142.53;48.45
4133;BME280;2080;51.038;7.008;2023-02-14T16:00:23;77023.53;;;-142.53;48.59
4133;BME280;2080;51.038;7.008;2023-02-14T16:02:56;77037.13;;;-142.53;48.60
4133;BME280;2080;51.038;7.008;2023-02-14T16:05:25;77058.50;;;-142.53;48.95
4133;BME280;2080;51.038;7.008;2023-02-14T16:08:04;77085.69;;;-142.53;49.54
4133;BME280;2080;51.038;7.008;2023-02-14T16:15:30;77128.44;;;-142.53;50.96
4133;BME280;2080;51.038;7.008;2023-02-14T16:17:58;77151.75;;;-142.53;51.52
4133;BME280;2080;51.038;7.008;2023-02-14T16:20:37;77173.13;;;-142.53;52.03
4133;BME280;2080;51.038;7.008;2023-02-14T16:25:39;77206.16;;;-142.53;54.33
4133;BME280;2080;51.038;7.008;2023-02-14T16:28:05;77215.84;;;-142.53;55.57
4133;BME280;2080;51.038;7.008;2023-02-14T16:30:30;77233.34;;;-142.53;57.91